This is the latest recevied weather packets stored in our database for station/object WMKP. If no packets are shown the sender has not sent any weather packets the latest 10 day(s).
| Time | Temp. | Humidity | Pressure | Rain* | Wind** | Luminosity | Snow |
|---|---|---|---|---|---|---|---|
| 1777786804 | 26.67° C | 83% | 1009 hPa | - | - | - | - |
| 1777786193 | 28.89° C | 79% | 1009 hPa | - | - | - | - |
| 1777785019 | 30° C | 74% | 1009 hPa | - | - | - | - |
| 1777783202 | 31.67° C | 66% | 1010 hPa | - | - | - | - |
| 1777781426 | 30.56° C | 70% | 1010 hPa | - | - | - | - |
| 1777779601 | 30° C | 74% | 1010 hPa | - | - | - | - |
| 1777777820 | 28.89° C | 79% | 1010 hPa | - | - | - | - |
| 1777776001 | 28.89° C | 79% | 1010 hPa | - | - | - | - |
| 1777774223 | 28.89° C | 79% | 1010 hPa | - | - | - | - |
| 1777772404 | 28.89° C | 79% | 1010 hPa | - | - | - | - |
| 1777770618 | 28.89° C | 79% | 1009 hPa | - | - | - | - |
| 1777768800 | 27.78° C | 83% | 1009 hPa | - | - | - | - |
| 1777767026 | 26.67° C | 83% | 1009 hPa | - | - | - | - |
| 1777765200 | 25.56° C | 88% | 1008 hPa | - | - | - | - |
| 1777763420 | 25.56° C | 88% | 1008 hPa | - | - | - | - |
| 1777761601 | 25.56° C | 88% | 1008 hPa | - | - | - | - |
| 1777759818 | 26.67° C | 83% | 1008 hPa | - | - | - | - |
| 1777758003 | 26.67° C | 83% | 1007 hPa | - | - | - | - |
| 1777756218 | 26.67° C | 83% | 1007 hPa | - | - | - | - |
| 1777754400 | 26.67° C | 83% | 1007 hPa | - | - | - | - |
| 1777752618 | 26.67° C | 83% | 1007 hPa | - | - | - | - |
| 1777750801 | 26.67° C | 78% | 1007 hPa | - | - | - | - |
| 1777749030 | 26.67° C | 83% | 1008 hPa | - | - | - | - |
| 1777747203 | 26.67° C | 83% | 1008 hPa | - | - | - | - |
| 1777745418 | 26.67° C | 78% | 1009 hPa | - | - | - | - |
* Rain since midnight (hover to see other rain measurements)
** Current wind speed in m/s (hover to see current wind gust speed)